Elsie, Michigan
Current Conditions -  °F | °C
As of 8:13 PM on Saturday 22 Nov 2014 (Local Time) from KRNP Reporting Station
Drizzle Drizzle  
Wind Chill: 40°   Ceiling: 700
Heat Index: 46°   Visibility: 2.5mi
Dew Point: 46°   Wind: 13mph
Humidity: 99%   Direction: 210°SSW
Pressure: 29.89"   Gusts: 17mph
Location:  43.09°N, 84.39°W
Report Text: KRNP 230113Z AUTO 21011G15KT 2 1/2SM -DZ BKN007 OVC013 08/08 A2989 RMK AO2 T00770076
Loading
Personal Weather Stations






























Interactive Weather Map New forecast layout! Learn more

10-Day Weather Forecast

Advertisements
Track Severe Weather on mobile